Time;durP1;ratioP1;P1;durP2;ratioP2;P2;SDS_P1;SDS_P2;PMS_P1;PMS_P2;Temp;Humidity;BMP_temperature;BMP_pressure;BME280_temperature;BME280_humidity;BME280_pressure;Samples;Min_cycle;Max_cycle;Signal;HPM_P1;HPM_P2
2023/04/26 00:00:29;;;;;;;1.30;0.90;;;;;;;2.88;100.00;101840.06;4968299;28;20744;-73
2023/04/26 00:02:54;;;;;;;2.45;1.30;;;;;;;2.85;100.00;101838.31;4995227;28;20041;-73
2023/04/26 00:05:20;;;;;;;2.50;1.20;;;;;;;2.83;100.00;101840.91;4982629;28;20096;-73
2023/04/26 00:07:46;;;;;;;3.17;1.40;;;;;;;2.79;100.00;101836.53;4979933;28;20848;-71
2023/04/26 00:10:11;;;;;;;2.40;1.45;;;;;;;2.78;100.00;101834.78;4983806;28;20517;-72
2023/04/26 00:12:37;;;;;;;2.25;1.17;;;;;;;2.75;100.00;101831.28;4984054;28;20037;-73
2023/04/26 00:15:03;;;;;;;0.90;0.90;;;;;;;2.73;100.00;101831.31;4992740;28;20064;-74
2023/04/26 00:17:29;;;;;;;1.85;1.17;;;;;;;2.73;100.00;101839.16;4965889;28;20035;-72
2023/04/26 00:19:56;;;;;;;6.80;1.20;;;;;;;2.74;100.00;101834.78;4983573;28;20038;-71
2023/04/26 00:22:22;;;;;;;3.08;1.65;;;;;;;2.77;100.00;101837.44;4983779;28;20026;-71
2023/04/26 00:24:47;;;;;;;2.90;1.40;;;;;;;2.79;100.00;101841.75;4978608;28;20578;-72
2023/04/26 00:27:13;;;;;;;3.30;1.30;;;;;;;2.82;100.00;101839.19;4993648;28;20486;-73
2023/04/26 00:29:38;;;;;;;2.92;1.30;;;;;;;2.84;100.00;101832.19;4982353;28;20611;-73
2023/04/26 00:32:04;;;;;;;2.92;1.30;;;;;;;2.88;100.00;101834.84;4983357;28;20053;-72
2023/04/26 00:34:34;;;;;;;4.10;1.23;;;;;;;2.90;100.00;101833.97;4981252;28;20046;-74
2023/04/26 00:36:59;;;;;;;3.47;1.60;;;;;;;2.92;100.00;101841.81;4965530;28;20036;-73
2023/04/26 00:39:26;;;;;;;2.55;1.27;;;;;;;2.91;100.00;101825.25;4982234;28;20082;-73
2023/04/26 00:41:51;;;;;;;1.85;1.50;;;;;;;2.90;100.00;101835.72;4963567;28;20056;-73
2023/04/26 00:44:17;;;;;;;3.00;1.48;;;;;;;2.89;100.00;101839.19;4978954;28;20677;-73
2023/04/26 00:46:42;;;;;;;5.55;1.50;;;;;;;2.89;100.00;101847.03;4983636;28;20037;-73
2023/04/26 00:49:11;;;;;;;5.13;1.40;;;;;;;2.88;100.00;101851.38;4983688;28;20053;-74
2023/04/26 00:51:37;;;;;;;2.55;1.60;;;;;;;2.87;100.00;101839.19;4990415;28;20478;-73
2023/04/26 00:54:02;;;;;;;3.55;1.33;;;;;;;2.83;100.00;101837.44;4992533;28;20044;-73
2023/04/26 00:56:29;;;;;;;2.55;1.40;;;;;;;2.81;100.00;101834.81;4980257;28;20046;-73
2023/04/26 00:58:55;;;;;;;3.78;1.77;;;;;;;2.79;100.00;101831.31;4977251;28;20037;-73
2023/04/26 01:01:20;;;;;;;1.90;1.58;;;;;;;2.79;100.00;101836.53;4979473;28;20674;-73
2023/04/26 01:03:46;;;;;;;3.22;1.40;;;;;;;2.78;100.00;101828.72;4960818;28;20053;-73
2023/04/26 01:06:12;;;;;;;2.20;1.50;;;;;;;2.79;100.00;101836.53;4966759;28;20797;-73
2023/04/26 01:08:38;;;;;;;3.05;1.63;;;;;;;2.79;100.00;101830.44;4978832;28;21219;-75
2023/04/26 01:11:04;;;;;;;3.03;1.58;;;;;;;2.79;100.00;101827.84;4963343;28;20069;-73
2023/04/26 01:13:31;;;;;;;1.55;1.42;;;;;;;2.80;100.00;101832.19;4979678;28;20045;-73
2023/04/26 01:15:57;;;;;;;4.47;1.70;;;;;;;2.79;100.00;101831.31;4978369;28;20041;-73
2023/04/26 01:18:23;;;;;;;7.05;1.77;;;;;;;2.78;100.00;101829.56;4973639;28;20604;-73
2023/04/26 01:20:50;;;;;;;3.03;1.58;;;;;;;2.77;100.00;101833.03;4978466;28;20521;-73
2023/04/26 01:23:16;;;;;;;4.05;1.58;;;;;;;2.76;100.00;101835.66;4977931;28;21570;-74
2023/04/26 01:25:42;;;;;;;4.60;1.80;;;;;;;2.70;100.00;101832.16;4975704;28;20042;-72
2023/04/26 01:28:07;;;;;;;5.25;1.70;;;;;;;2.67;100.00;101832.16;4977762;28;20029;-73
2023/04/26 01:30:33;;;;;;;3.90;1.65;;;;;;;2.65;100.00;101836.50;4976855;28;20034;-73
2023/04/26 01:33:03;;;;;;;2.42;1.60;;;;;;;2.63;100.00;101835.63;4979276;28;20039;-73
2023/04/26 01:35:28;;;;;;;2.15;1.50;;;;;;;2.61;100.00;101833.88;4980163;28;20096;-72
2023/04/26 01:37:54;;;;;;;2.92;1.70;;;;;;;2.58;100.00;101825.13;4978624;28;20034;-73
2023/04/26 01:40:20;;;;;;;2.60;1.63;;;;;;;2.57;100.00;101830.38;4980625;28;21187;-73
2023/04/26 01:42:45;;;;;;;2.13;1.40;;;;;;;2.54;100.00;101831.25;4976746;28;20090;-73
2023/04/26 01:45:11;;;;;;;1.77;1.55;;;;;;;2.52;100.00;101821.63;4982478;28;20074;-73
2023/04/26 01:47:37;;;;;;;2.35;1.50;;;;;;;2.49;100.00;101821.59;4966085;28;20042;-72
2023/04/26 01:50:03;;;;;;;4.50;1.60;;;;;;;2.46;100.00;101827.72;4964104;28;20151;-72
2023/04/26 01:52:28;;;;;;;3.05;1.60;;;;;;;2.43;100.00;101823.34;4979084;28;20336;-72
2023/04/26 01:54:54;;;;;;;4.43;1.80;;;;;;;2.39;100.00;101820.72;4992503;28;20046;-73
2023/04/26 01:57:19;;;;;;;7.00;1.67;;;;;;;2.37;100.00;101818.09;4993656;28;20141;-73
2023/04/26 01:59:45;;;;;;;2.97;1.42;;;;;;;2.35;100.00;101816.34;4977956;28;20037;-73
2023/04/26 02:02:10;;;;;;;2.95;1.70;;;;;;;2.33;100.00;101818.09;4979724;28;20054;-73
2023/04/26 02:04:36;;;;;;;2.15;1.38;;;;;;;2.31;100.00;101816.31;4983807;28;20064;-73
2023/04/26 02:07:02;;;;;;;5.70;1.63;;;;;;;2.29;100.00;101818.06;4992506;28;20121;-73
2023/04/26 02:09:27;;;;;;;3.17;1.52;;;;;;;2.28;100.00;101824.16;4976599;28;20033;-74
2023/04/26 02:11:53;;;;;;;2.47;1.77;;;;;;;2.27;100.00;101817.19;4982140;28;20038;-73
2023/04/26 02:14:19;;;;;;;3.40;1.73;;;;;;;2.26;100.00;101820.66;4977274;28;20041;-73
2023/04/26 02:16:44;;;;;;;2.72;1.30;;;;;;;2.23;100.00;101818.03;4975278;28;20054;-73
2023/04/26 02:19:10;;;;;;;3.10;1.65;;;;;;;2.21;100.00;101819.75;4978923;28;20065;-72
2023/04/26 02:21:53;;;;;;;3.13;1.60;;;;;;;2.21;100.00;101826.72;4979187;28;20750;-72
2023/04/26 02:24:18;;;;;;;2.03;1.58;;;;;;;2.19;100.00;101824.13;4961747;28;20092;-72
2023/04/26 02:26:44;;;;;;;3.58;1.55;;;;;;;2.17;100.00;101828.44;4977664;28;20156;-73
2023/04/26 02:29:09;;;;;;;5.22;1.80;;;;;;;2.13;100.00;101824.06;4963908;28;20042;-72
2023/04/26 02:31:35;;;;;;;2.90;1.52;;;;;;;2.11;100.00;101834.50;4979238;28;20052;-73
2023/04/26 02:34:01;;;;;;;2.78;1.48;;;;;;;2.08;100.00;101837.13;4955547;28;20185;-73
2023/04/26 02:36:27;;;;;;;4.57;1.35;;;;;;;2.05;100.00;101829.25;4961615;28;20104;-73
2023/04/26 02:38:53;;;;;;;1.67;1.30;;;;;;;2.02;100.00;101821.41;4959134;28;20300;-73
2023/04/26 02:41:18;;;;;;;3.60;1.40;;;;;;;1.98;100.00;101822.25;4959593;28;20042;-73
2023/04/26 02:43:44;;;;;;;3.42;1.60;;;;;;;1.94;100.00;101831.81;4989747;28;20059;-73
2023/04/26 02:46:09;;;;;;;4.40;1.73;;;;;;;1.89;100.00;101834.38;4963499;28;20537;-73
2023/04/26 02:48:35;;;;;;;1.92;1.50;;;;;;;1.88;100.00;101832.63;4962360;28;20708;-71
2023/04/26 02:51:02;;;;;;;4.60;1.45;;;;;;;1.87;100.00;101830.88;4963241;28;20661;-72
2023/04/26 02:53:28;;;;;;;5.03;1.60;;;;;;;1.86;100.00;101830.88;4966321;28;20136;-72
2023/04/26 02:55:53;;;;;;;5.18;1.80;;;;;;;1.86;100.00;101825.66;4993697;28;20137;-73
2023/04/26 02:58:20;;;;;;;2.50;1.50;;;;;;;1.86;100.00;101833.50;4965417;28;21146;-73
2023/04/26 03:00:46;;;;;;;3.72;1.75;;;;;;;1.84;100.00;101825.63;4961538;28;20043;-73
2023/04/26 03:03:12;;;;;;;2.40;1.20;;;;;;;1.83;100.00;101836.06;4992406;28;20169;-72
2023/04/26 03:05:38;;;;;;;2.88;1.75;;;;;;;1.79;100.00;101818.66;4963609;28;20038;-72
2023/04/26 03:08:04;;;;;;;1.15;1.05;;;;;;;1.77;100.00;101826.47;4960670;28;20042;-73
2023/04/26 03:10:30;;;;;;;3.47;1.40;;;;;;;1.74;100.00;101831.69;4961620;28;20101;-72
2023/04/26 03:12:56;;;;;;;2.25;1.40;;;;;;;1.72;100.00;101823.81;4964678;28;20054;-72
2023/04/26 03:15:21;;;;;;;1.75;1.30;;;;;;;1.70;100.00;101825.53;4966249;28;20120;-72
2023/04/26 03:17:47;;;;;;;3.83;1.50;;;;;;;1.67;100.00;101825.53;4959156;28;20038;-73
2023/04/26 03:20:13;;;;;;;1.73;1.63;;;;;;;1.65;100.00;101828.97;4990750;28;20034;-73
2023/04/26 03:22:39;;;;;;;1.70;1.60;;;;;;;1.62;100.00;101832.44;4962626;28;20030;-72
2023/04/26 03:25:06;;;;;;;3.05;1.48;;;;;;;1.58;100.00;101825.47;4962118;28;20042;-73
2023/04/26 03:27:32;;;;;;;4.10;1.20;;;;;;;1.54;100.00;101826.28;4961055;28;20053;-73
2023/04/26 03:29:57;;;;;;;2.47;1.63;;;;;;;1.51;100.00;101828.88;4960905;28;20031;-73
2023/04/26 03:32:23;;;;;;;3.33;1.90;;;;;;;1.47;100.00;101830.59;4988605;28;20126;-72
2023/04/26 03:34:49;;;;;;;2.75;1.50;;;;;;;1.44;100.00;101823.63;4959123;28;20101;-72
2023/04/26 03:37:15;;;;;;;2.60;1.38;;;;;;;1.42;100.00;101824.47;4991110;28;20042;-72
2023/04/26 03:39:40;;;;;;;2.05;1.40;;;;;;;1.41;100.00;101827.94;4946606;28;20054;-72
2023/04/26 03:42:05;;;;;;;2.50;1.73;;;;;;;1.39;100.00;101825.31;4961107;28;20039;-72
2023/04/26 03:44:31;;;;;;;2.22;1.33;;;;;;;1.38;100.00;101828.78;4958137;28;20035;-72
2023/04/26 03:46:57;;;;;;;3.85;1.85;;;;;;;1.39;100.00;101825.31;4961953;28;20045;-72
2023/04/26 03:49:22;;;;;;;2.45;1.45;;;;;;;1.44;100.00;101827.94;4947208;28;20041;-72
2023/04/26 03:51:48;;;;;;;3.85;1.65;;;;;;;1.45;100.00;101824.47;4960904;28;20038;-72
2023/04/26 03:54:14;;;;;;;5.75;1.60;;;;;;;1.49;100.00;101826.25;4962688;28;20070;-73
2023/04/26 03:56:40;;;;;;;4.30;1.60;;;;;;;1.53;100.00;101816.72;4964006;28;20046;-74
2023/04/26 03:59:08;;;;;;;2.45;1.35;;;;;;;1.59;100.00;101815.00;4961225;28;20258;-71
2023/04/26 04:01:33;;;;;;;2.92;1.98;;;;;;;1.66;100.00;101812.44;4955478;28;20168;-72
2023/04/26 04:03:59;;;;;;;2.38;1.45;;;;;;;1.71;100.00;101806.41;4960350;28;20122;-73
2023/04/26 04:06:25;;;;;;;5.47;1.92;;;;;;;1.74;100.00;101805.56;4961087;28;20145;-72
2023/04/26 04:08:51;;;;;;;6.13;1.90;;;;;;;1.79;100.00;101797.75;4986827;28;20030;-73
2023/04/26 04:11:17;;;;;;;3.90;1.40;;;;;;;1.84;100.00;101801.25;4978296;28;20088;-73
2023/04/26 04:13:42;;;;;;;3.78;1.50;;;;;;;1.88;100.00;101800.41;4960395;28;21118;-72
2023/04/26 04:16:09;;;;;;;2.60;1.50;;;;;;;1.90;100.00;101801.28;4976166;28;20085;-72
2023/04/26 04:18:35;;;;;;;2.60;1.90;;;;;;;1.92;100.00;101801.31;4973466;28;20541;-73
2023/04/26 04:21:00;;;;;;;3.72;2.00;;;;;;;1.94;100.00;101807.41;4990819;28;20042;-73
2023/04/26 04:23:26;;;;;;;2.53;1.42;;;;;;;1.94;100.00;101807.41;4962041;28;20134;-73
2023/04/26 04:25:52;;;;;;;4.57;2.33;;;;;;;1.95;100.00;101810.03;4961748;28;20129;-74
2023/04/26 04:28:18;;;;;;;2.88;1.92;;;;;;;1.96;100.00;101810.91;4958422;28;20044;-73
2023/04/26 04:30:45;;;;;;;2.45;1.60;;;;;;;1.97;100.00;101813.50;4961613;28;20034;-72
2023/04/26 04:33:11;;;;;;;3.30;1.75;;;;;;;1.98;100.00;101815.28;4964589;28;20746;-73
2023/04/26 04:35:36;;;;;;;1.67;1.58;;;;;;;2.02;100.00;101809.19;4976892;28;20062;-73
2023/04/26 04:38:03;;;;;;;2.35;1.83;;;;;;;2.03;100.00;101810.94;4981415;28;20038;-73
2023/04/26 04:40:29;;;;;;;2.80;1.88;;;;;;;2.08;100.00;101807.50;4984822;28;20525;-73
2023/04/26 04:42:54;;;;;;;3.88;1.50;;;;;;;2.10;100.00;101811.88;4962773;28;20527;-72
2023/04/26 04:45:20;;;;;;;4.80;1.70;;;;;;;2.13;100.00;101814.47;4968696;28;20066;-72
2023/04/26 04:47:46;;;;;;;4.03;1.98;;;;;;;2.16;100.00;101816.25;4966866;28;21317;-72
2023/04/26 04:50:12;;;;;;;5.28;2.05;;;;;;;2.18;100.00;101809.28;4985214;28;20073;-72
2023/04/26 04:52:37;;;;;;;4.18;2.17;;;;;;;2.19;100.00;101823.22;4985959;28;20030;-73
2023/04/26 04:55:03;;;;;;;3.30;1.95;;;;;;;2.19;100.00;101811.06;4998017;28;20034;-71
2023/04/26 04:57:30;;;;;;;3.10;1.73;;;;;;;2.20;100.00;101812.78;4984012;28;20038;-72
2023/04/26 04:59:56;;;;;;;2.53;2.00;;;;;;;2.22;100.00;101810.19;4966424;28;21487;-73
2023/04/26 05:02:21;;;;;;;2.67;1.88;;;;;;;2.25;100.00;101820.66;4978788;28;20045;-73
2023/04/26 05:04:47;;;;;;;3.47;1.65;;;;;;;2.26;100.00;101814.56;4985250;28;20179;-73
2023/04/26 05:07:14;;;;;;;2.90;1.70;;;;;;;2.28;100.00;101823.25;4995078;28;20042;-73
2023/04/26 05:09:41;;;;;;;3.22;1.92;;;;;;;2.29;100.00;101819.81;4980978;28;20548;-73
2023/04/26 05:12:07;;;;;;;7.68;1.90;;;;;;;2.29;100.00;101820.66;4982202;28;20046;-73
2023/04/26 05:14:32;;;;;;;2.28;1.75;;;;;;;2.34;100.00;101823.28;4977674;28;20080;-73
2023/04/26 05:16:58;;;;;;;2.85;1.70;;;;;;;2.38;100.00;101829.41;4959348;28;20188;-72
2023/04/26 05:19:23;;;;;;;3.72;1.80;;;;;;;2.42;100.00;101831.19;4993516;28;20493;-72
2023/04/26 05:21:49;;;;;;;5.40;1.90;;;;;;;2.46;100.00;101827.72;4983240;28;20157;-73
2023/04/26 05:24:15;;;;;;;2.47;1.80;;;;;;;2.51;100.00;101833.81;4996163;28;20599;-73
2023/04/26 05:26:40;;;;;;;2.55;2.05;;;;;;;2.58;100.00;101827.75;4980130;28;20042;-73
2023/04/26 05:29:06;;;;;;;2.20;1.73;;;;;;;2.66;100.00;101826.94;4982884;28;20064;-73
2023/04/26 05:31:32;;;;;;;3.95;2.00;;;;;;;2.74;100.00;101827.81;4982344;28;20112;-73
2023/04/26 05:33:57;;;;;;;4.30;1.83;;;;;;;2.83;100.00;101842.69;4968827;28;20724;-73
2023/04/26 05:36:23;;;;;;;5.50;1.70;;;;;;;2.93;100.00;101838.31;4971968;28;20112;-73
2023/04/26 05:38:48;;;;;;;4.65;1.85;;;;;;;3.04;100.00;101847.06;4945470;28;20058;-72
2023/04/26 05:41:14;;;;;;;2.53;1.77;;;;;;;3.19;100.00;101854.09;4945195;28;20078;-73
2023/04/26 05:43:39;;;;;;;3.85;1.58;;;;;;;3.33;100.00;101856.72;4941241;28;20245;-73
2023/04/26 05:46:05;;;;;;;2.00;1.30;;;;;;;3.46;100.00;101859.34;4957191;28;20666;-73
2023/04/26 05:48:30;;;;;;;3.05;1.52;;;;;;;3.55;100.00;101853.25;4974082;28;22093;-72
2023/04/26 05:50:56;;;;;;;2.75;1.33;;;;;;;3.60;100.00;101860.22;4970294;28;21537;-73
2023/04/26 05:53:21;;;;;;;3.53;1.70;;;;;;;3.65;100.00;101857.63;4942005;28;20117;-72
2023/04/26 05:55:47;;;;;;;2.47;1.40;;;;;;;3.71;100.00;101860.19;4944879;28;20051;-72
2023/04/26 05:58:13;;;;;;;2.35;1.77;;;;;;;3.78;100.00;101853.22;4947281;28;20031;-72
2023/04/26 06:00:39;;;;;;;2.10;1.35;;;;;;;3.85;100.00;101856.72;4973054;28;20501;-74
2023/04/26 06:03:05;;;;;;;3.22;1.67;;;;;;;3.93;100.00;101854.97;4973027;28;20157;-72
2023/04/26 06:05:31;;;;;;;5.32;1.98;;;;;;;4.10;100.00;101852.31;4960598;28;20053;-73
2023/04/26 06:07:57;;;;;;;4.50;1.50;;;;;;;4.32;100.00;101853.13;4946184;28;20035;-73
2023/04/26 06:10:23;;;;;;;2.63;1.30;;;;;;;4.60;100.00;101846.91;4939109;28;20636;-73
2023/04/26 06:12:48;;;;;;;6.40;1.60;;;;;;;4.89;100.00;101851.13;4942100;28;20034;-73
2023/04/26 06:15:14;;;;;;;6.47;2.15;;;;;;;5.11;100.00;101854.50;4966700;28;20042;-85
2023/04/26 06:17:40;;;;;;;3.13;1.48;;;;;;;5.34;100.00;101850.00;4923420;28;20181;-74
2023/04/26 06:20:08;;;;;;;4.57;1.25;;;;;;;5.54;100.00;101853.34;4940775;28;20490;-75
2023/04/26 06:22:34;;;;;;;3.28;1.35;;;;;;;5.76;100.00;101868.03;4943593;28;20070;-74
2023/04/26 06:25:00;;;;;;;1.52;1.20;;;;;;;6.00;100.00;101863.44;4974332;28;20109;-74
2023/04/26 06:27:26;;;;;;;1.85;1.17;;;;;;;6.16;100.00;101866.81;4947338;28;20038;-75
2023/04/26 06:29:51;;;;;;;2.15;1.38;;;;;;;6.27;100.00;101879.84;4949701;28;20265;-74
2023/04/26 06:32:17;;;;;;;3.25;1.10;;;;;;;6.23;100.00;101865.84;4947927;28;20038;-73
2023/04/26 06:34:44;;;;;;;1.98;1.10;;;;;;;6.15;100.00;101865.94;4976945;28;20026;-73
2023/04/26 06:37:10;;;;;;;4.13;1.20;;;;;;;6.22;100.00;101872.00;4994230;28;20058;-73
2023/04/26 06:39:39;;;;;;;3.50;1.60;;;;;;;6.38;100.00;101862.19;4966188;28;20042;-74
2023/04/26 06:42:05;;;;;;;1.33;1.05;;;;;;;6.53;100.00;101855.88;4981302;28;20057;-74
2023/04/26 06:44:31;;;;;;;2.15;1.10;;;;;;;6.65;100.00;101860.97;4972547;28;20039;-74
2023/04/26 06:46:56;;;;;;;2.17;1.20;;;;;;;6.66;100.00;101860.06;4977229;28;20027;-75
2023/04/26 06:49:22;;;;;;;1.23;1.10;;;;;;;6.65;100.00;101871.50;4966662;28;20497;-74
2023/04/26 06:51:48;;;;;;;2.25;0.93;;;;;;;6.67;100.00;101868.84;4993489;28;20040;-74
2023/04/26 06:54:14;;;;;;;2.95;1.40;;;;;;;6.70;100.00;101863.53;4964491;28;20046;-72
2023/04/26 06:56:39;;;;;;;1.90;1.48;;;;;;;6.76;100.00;101862.63;4965113;28;20531;-73
2023/04/26 06:59:06;;;;;;;1.55;1.23;;;;;;;6.77;100.00;101867.84;4965389;28;20162;-73
2023/04/26 07:01:33;;;;;;;2.15;1.23;;;;;;;6.71;100.00;101867.06;4965039;28;20046;-74
2023/04/26 07:04:02;;;;;;;2.95;1.48;;;;;;;6.66;100.00;101872.38;4965930;28;20038;-74
2023/04/26 07:06:28;;;;;;;1.30;1.20;;;;;;;6.62;100.00;101865.41;4967331;28;20288;-74
2023/04/26 07:08:54;;;;;;;3.22;1.23;;;;;;;6.58;100.00;101869.00;4983067;28;20578;-74
2023/04/26 07:11:20;;;;;;;2.22;1.30;;;;;;;6.60;100.00;101873.31;4963218;28;20068;-74
2023/04/26 07:13:46;;;;;;;2.42;1.20;;;;;;;6.63;100.00;101873.28;4997979;28;20041;-74
2023/04/26 07:16:12;;;;;;;3.80;1.10;;;;;;;6.65;100.00;101871.50;4977425;28;20042;-75
2023/04/26 07:18:39;;;;;;;2.75;1.30;;;;;;;6.65;100.00;101868.88;4940062;28;20081;-73
2023/04/26 07:21:05;;;;;;;3.33;1.33;;;;;;;6.64;100.00;101869.75;4937771;28;20038;-73
2023/04/26 07:23:31;;;;;;;4.30;1.30;;;;;;;6.66;100.00;101878.50;4978695;28;20984;-73
2023/04/26 07:25:57;;;;;;;3.00;1.30;;;;;;;6.68;100.00;101880.25;4945485;28;20164;-74
2023/04/26 07:28:22;;;;;;;2.00;1.10;;;;;;;6.70;100.00;101878.47;4961507;28;20050;-74
2023/04/26 07:30:50;;;;;;;2.28;1.10;;;;;;;6.75;100.00;101881.94;4963761;28;20057;-73
2023/04/26 07:33:16;;;;;;;2.67;1.25;;;;;;;6.76;100.00;101875.78;4989209;28;20509;-74
2023/04/26 07:35:42;;;;;;;1.92;1.30;;;;;;;6.78;100.00;101872.22;4974361;28;20049;-74
2023/04/26 07:38:09;;;;;;;3.75;1.40;;;;;;;6.91;100.00;101877.31;4977388;28;20042;-74
2023/04/26 07:40:35;;;;;;;2.42;1.00;;;;;;;7.03;100.00;101876.28;4980294;28;20034;-74
2023/04/26 07:43:04;;;;;;;3.05;1.40;;;;;;;7.15;100.00;101878.72;4977056;28;20037;-74
2023/04/26 07:45:31;;;;;;;2.60;1.30;;;;;;;7.23;100.00;101878.63;4962327;28;20175;-74
2023/04/26 07:47:56;;;;;;;4.13;1.35;;;;;;;7.24;100.00;101875.09;4980925;28;20712;-74
2023/04/26 07:50:23;;;;;;;4.13;1.23;;;;;;;7.25;100.00;101882.09;4978742;28;20103;-74
2023/04/26 07:52:48;;;;;;;2.67;1.10;;;;;;;7.29;100.00;101877.66;4981370;28;20038;-74
2023/04/26 07:55:17;;;;;;;1.77;1.20;;;;;;;7.31;100.00;101874.09;4980076;28;20034;-74
2023/04/26 07:57:42;;;;;;;5.15;1.30;;;;;;;7.36;100.00;101886.34;4959048;28;20336;-73
2023/04/26 08:00:09;;;;;;;2.22;1.27;;;;;;;7.32;100.00;101885.53;4960560;28;20489;-74
2023/04/26 08:02:35;;;;;;;3.08;1.10;;;;;;;7.31;100.00;101889.06;4980906;28;20046;-76
2023/04/26 08:05:00;;;;;;;3.75;1.30;;;;;;;7.27;99.09;101890.00;4981912;28;20048;-74
2023/04/26 08:07:26;;;;;;;1.98;1.20;;;;;;;7.20;100.00;101883.94;4992971;28;20045;-75
2023/04/26 08:09:52;;;;;;;3.08;1.33;;;;;;;7.20;100.00;101890.06;4981650;28;20072;-73
2023/04/26 08:12:18;;;;;;;2.55;1.02;;;;;;;7.19;98.19;101885.69;4981222;28;20086;-73
2023/04/26 08:14:43;;;;;;;3.88;1.02;;;;;;;7.17;98.09;101889.25;4995347;28;20040;-75
2023/04/26 08:17:09;;;;;;;2.63;1.20;;;;;;;7.19;98.39;101901.50;4933357;28;20048;-75
2023/04/26 08:19:35;;;;;;;2.53;0.90;;;;;;;7.27;96.97;101896.13;4973231;28;20104;-75
2023/04/26 08:22:01;;;;;;;2.35;1.10;;;;;;;7.31;97.01;101894.34;4957607;28;20034;-75
2023/04/26 08:24:27;;;;;;;2.65;1.20;;;;;;;7.38;96.63;101900.38;4970909;28;20030;-75
2023/04/26 08:26:53;;;;;;;2.05;0.90;;;;;;;7.47;98.21;101908.16;4976359;28;20041;-74
2023/04/26 08:29:22;;;;;;;2.97;1.15;;;;;;;7.55;97.97;101908.00;4980301;28;20046;-73
2023/04/26 08:31:48;;;;;;;2.22;1.10;;;;;;;7.58;99.21;101910.63;4952018;28;20038;-75
2023/04/26 08:34:13;;;;;;;2.22;1.05;;;;;;;7.51;97.30;101924.78;4976134;28;20037;-75
2023/04/26 08:36:43;;;;;;;4.68;1.35;;;;;;;7.25;98.66;101933.94;4979591;28;20037;-75
2023/04/26 08:39:11;;;;;;;3.20;1.60;;;;;;;6.97;100.00;101935.16;4979021;28;20574;-75
2023/04/26 08:41:42;;;;;;;2.38;1.40;;;;;;;6.74;100.00;101946.84;4974186;28;20041;-76
2023/04/26 08:44:07;;;;;;;2.35;1.40;;;;;;;6.37;100.00;101942.84;4970236;28;20396;-75
2023/04/26 08:46:40;;;;;;;3.78;1.33;;;;;;;6.10;100.00;101950.13;4980139;28;20052;-75
2023/04/26 08:49:28;;;;;;;2.63;1.55;;;;;;;5.84;100.00;101951.19;4990991;28;20217;-75
2023/04/26 08:51:55;;;;;;;4.13;1.30;;;;;;;5.68;100.00;101952.19;4983564;28;20041;-75
2023/04/26 08:54:21;;;;;;;2.20;1.50;;;;;;;5.53;100.00;101947.91;4976746;28;20025;-73
2023/04/26 08:56:47;;;;;;;2.20;1.42;;;;;;;5.47;100.00;101935.69;4991238;28;22190;-73
2023/04/26 08:59:13;;;;;;;2.25;1.60;;;;;;;5.47;100.00;101935.69;4977824;28;20054;-73
2023/04/26 09:01:40;;;;;;;2.55;1.60;;;;;;;5.52;100.00;101933.03;4995454;28;20256;-74
2023/04/26 09:04:11;;;;;;;3.10;1.90;;;;;;;5.64;100.00;101929.44;4981123;28;20052;-73
2023/04/26 09:06:38;;;;;;;2.22;1.58;;;;;;;5.75;100.00;101935.50;4981271;28;20120;-73
2023/04/26 09:09:06;;;;;;;1.55;1.27;;;;;;;5.88;100.00;101925.75;4936553;28;20040;-73
2023/04/26 09:12:00;;;;;;;2.17;1.50;;;;;;;6.04;100.00;101929.16;4993989;28;22000;-73
2023/04/26 09:14:26;;;;;;;;;;;;;;;6.20;100.00;101931.63;4970360;28;20044;-72
2023/04/26 09:16:52;;;;;;;2.80;2.10;;;;;;;6.35;100.00;101925.34;4978442;28;19930;-74
2023/04/26 09:19:43;;;;;;;4.90;1.60;;;;;;;6.53;100.00;101926.91;4948417;28;20017;-73
2023/04/26 09:22:09;;;;;;;7.18;1.40;;;;;;;6.67;100.00;101916.22;4979067;28;20038;-73
2023/04/26 09:24:53;;;;;;;3.58;1.48;;;;;;;6.80;100.00;101924.84;4982081;28;20037;-73
2023/04/26 09:27:19;;;;;;;3.33;1.70;;;;;;;6.90;100.00;101917.69;4959532;28;20038;-72
2023/04/26 09:30:09;;;;;;;3.22;1.58;;;;;;;7.04;100.00;101921.00;4980182;28;20044;-73
2023/04/26 09:33:05;;;;;;;2.65;1.33;;;;;;;7.14;100.00;101921.75;4990767;28;20034;-73
2023/04/26 09:35:36;;;;;;;4.88;1.60;;;;;;;7.19;100.00;101914.69;4966059;28;20440;-73
2023/04/26 09:38:03;;;;;;;4.18;1.40;;;;;;;7.27;99.79;101918.97;4974498;28;20181;-73
2023/04/26 09:40:41;;;;;;;5.35;1.58;;;;;;;7.36;100.00;101908.31;4963001;28;20363;-73
2023/04/26 09:43:10;;;;;;;2.85;1.50;;;;;;;7.38;99.57;101919.69;4993423;28;21026;-72
2023/04/26 09:45:53;;;;;;;2.10;1.40;;;;;;;7.37;99.02;101917.94;4979556;28;20109;-73
2023/04/26 09:48:29;;;;;;;3.42;1.30;;;;;;;7.30;97.76;101926.84;4959251;28;20330;-75
2023/04/26 09:51:01;;;;;;;2.85;1.35;;;;;;;7.18;98.38;101928.75;4992146;28;20038;-75
2023/04/26 09:53:46;;;;;;;3.08;1.60;;;;;;;7.13;96.97;101922.66;4977128;28;20076;-75
2023/04/26 09:56:17;;;;;;;2.83;1.20;;;;;;;7.09;96.63;101920.97;4979158;28;20109;-76
2023/04/26 09:58:46;;;;;;;5.45;1.40;;;;;;;7.06;97.32;101923.63;4958727;28;20049;-75
2023/04/26 10:01:16;;;;;;;2.28;1.38;;;;;;;7.05;97.25;101924.53;4984376;28;20030;-75
2023/04/26 10:03:43;;;;;;;4.30;1.45;;;;;;;7.04;96.87;101931.56;4979559;28;21144;-74
2023/04/26 10:06:08;;;;;;;3.60;1.40;;;;;;;7.06;98.45;101932.44;4984358;28;20177;-75
2023/04/26 10:08:35;;;;;;;3.85;1.58;;;;;;;7.10;99.03;101927.97;4984264;28;20034;-75
2023/04/26 10:11:03;;;;;;;3.47;1.33;;;;;;;7.10;99.13;101925.34;4967944;28;20065;-75
2023/04/26 10:13:33;;;;;;;4.15;1.40;;;;;;;7.18;99.57;101925.22;4950314;28;20492;-80
2023/04/26 10:16:00;;;;;;;3.65;1.73;;;;;;;7.24;100.00;101916.38;4995920;28;20038;-74
2023/04/26 10:18:27;;;;;;;2.60;1.80;;;;;;;7.29;100.00;101920.69;4983278;28;20117;-74
2023/04/26 10:20:56;;;;;;;3.78;1.63;;;;;;;7.32;99.83;101927.69;4983866;28;20064;-73
2023/04/26 10:23:26;;;;;;;5.28;1.55;;;;;;;7.32;100.00;101920.63;4967412;28;20052;-74
2023/04/26 10:25:52;;;;;;;3.50;1.70;;;;;;;7.35;99.63;101914.44;4981933;28;20473;-74
2023/04/26 10:28:44;;;;;;;2.28;1.48;;;;;;;7.39;97.29;101921.44;4966154;28;20113;-74
2023/04/26 10:31:11;;;;;;;4.63;1.60;;;;;;;7.41;97.82;101908.25;4999926;28;20037;-74
2023/04/26 10:33:36;;;;;;;3.97;1.50;;;;;;;7.45;98.46;101920.44;4981939;28;20038;-73
2023/04/26 10:36:11;;;;;;;2.80;1.60;;;;;;;7.48;97.96;101923.06;4984810;28;20778;-74
2023/04/26 10:38:42;;;;;;;3.47;1.75;;;;;;;7.44;97.18;101929.25;4984156;28;20056;-73
2023/04/26 10:41:28;;;;;;;3.40;1.63;;;;;;;7.29;97.76;101940.88;4997565;28;20049;-74
2023/04/26 10:43:54;;;;;;;2.22;2.03;;;;;;;7.07;100.00;101933.28;4996343;28;20058;-73
2023/04/26 10:46:37;;;;;;;4.45;2.05;;;;;;;6.72;100.00;101947.75;4999681;28;20133;-73
2023/04/26 10:49:21;;;;;;;3.45;2.05;;;;;;;6.44;100.00;101948.06;4967720;28;20523;-73
2023/04/26 10:52:15;;;;;;;5.13;2.22;;;;;;;6.08;100.00;101948.41;4967513;28;20037;-74
2023/04/26 10:54:44;;;;;;;3.92;2.08;;;;;;;5.69;100.00;101946.94;4978989;28;20733;-73
2023/04/26 10:57:13;;;;;;;4.88;2.20;;;;;;;5.39;100.00;101945.38;4996817;28;20049;-81
2023/04/26 10:59:38;;;;;;;4.93;2.78;;;;;;;5.13;100.00;101938.50;4964125;28;20033;-73
2023/04/26 11:02:04;;;;;;;7.15;2.53;;;;;;;4.99;100.00;101933.31;4968286;28;20964;-74
2023/04/26 11:05:08;;;;;;;4.68;2.55;;;;;;;4.93;100.00;101936.84;4980970;28;20088;-74
2023/04/26 11:07:36;;;;;;;4.70;2.75;;;;;;;4.93;100.00;101936.84;4918820;28;20850;-74
2023/04/26 11:10:02;;;;;;;3.65;2.15;;;;;;;4.96;100.00;101933.34;4985378;28;20500;-76
2023/04/26 11:12:28;;;;;;;4.63;2.17;;;;;;;4.99;100.00;101928.94;4964355;28;20037;-74
2023/04/26 11:14:54;;;;;;;2.90;2.22;;;;;;;5.13;100.00;101930.63;4995205;28;20061;-74
2023/04/26 11:17:23;;;;;;;4.55;2.60;;;;;;;5.28;100.00;101925.28;4962469;28;21534;-76
2023/04/26 11:19:48;;;;;;;7.82;3.33;;;;;;;5.44;100.00;101922.56;4981490;28;20030;-75
2023/04/26 11:22:14;;;;;;;4.45;2.38;;;;;;;5.57;100.00;101918.97;4977363;28;22021;-74
2023/04/26 11:24:41;;;;;;;3.78;2.10;;;;;;;5.77;100.00;101912.69;4962826;28;20026;-74
2023/04/26 11:27:10;;;;;;;9.55;3.60;;;;;;;5.98;100.00;101916.91;4965065;28;20040;-73